createdAt,value
2023-03-19T00:00:28.758Z,97751.56
2023-03-19T00:02:55.625Z,97746.38
2023-03-19T00:05:22.230Z,97754.81
2023-03-19T00:07:48.660Z,97743.72
2023-03-19T00:10:15.270Z,97750.81
2023-03-19T00:12:41.954Z,97751.16
2023-03-19T00:15:13.981Z,97757.97
2023-03-19T00:17:41.768Z,97762.28
2023-03-19T00:20:09.845Z,97767.47
2023-03-19T00:22:39.749Z,97775.06
2023-03-19T00:25:09.789Z,97780.44
2023-03-19T00:27:38.595Z,97787.56
2023-03-19T00:30:11.625Z,97779.44
2023-03-19T00:32:39.512Z,97789.84
2023-03-19T00:35:08.847Z,97789.50
2023-03-19T00:37:38.409Z,97794.47
2023-03-19T00:40:05.548Z,97800.91
2023-03-19T00:42:32.527Z,97804.75
2023-03-19T00:44:59.122Z,97819.50
2023-03-19T00:47:25.968Z,97813.38
2023-03-19T00:49:52.400Z,97814.50
2023-03-19T00:52:18.923Z,97821.31
2023-03-19T00:54:46.106Z,97822.28
2023-03-19T00:57:12.548Z,97818.31
2023-03-19T00:59:42.097Z,97807.41
2023-03-19T01:02:11.319Z,97814.34
2023-03-19T01:04:39.286Z,97822.28
2023-03-19T01:07:05.784Z,97806.56
2023-03-19T01:09:32.774Z,97819.78
2023-03-19T01:11:59.244Z,97821.47
2023-03-19T01:14:25.678Z,97817.00
2023-03-19T01:16:52.094Z,97806.75
2023-03-19T01:19:19.972Z,97820.78
2023-03-19T01:21:46.717Z,97815.19
2023-03-19T01:24:13.815Z,97804.59
2023-03-19T01:26:43.806Z,97809.88
2023-03-19T01:29:13.320Z,97819.78
2023-03-19T01:31:43.076Z,97816.66
2023-03-19T01:34:10.767Z,97817.16
2023-03-19T01:36:37.277Z,97824.25
2023-03-19T01:39:03.912Z,97812.53
2023-03-19T01:41:30.754Z,97814.03
2023-03-19T01:43:57.257Z,97819.66
2023-03-19T01:46:30.981Z,97811.91
2023-03-19T01:49:01.141Z,97827.94
2023-03-19T01:51:32.141Z,97826.28
2023-03-19T01:54:07.554Z,97813.53
2023-03-19T01:56:37.628Z,97817.84
2023-03-19T01:59:29.712Z,97819.16
2023-03-19T02:02:05.340Z,97825.78
2023-03-19T02:04:34.125Z,97820.69
2023-03-19T02:07:02.830Z,97828.78
2023-03-19T02:09:30.531Z,97824.50
2023-03-19T02:11:59.266Z,97819.91
2023-03-19T02:14:26.096Z,97830.16
2023-03-19T02:16:54.447Z,97831.66
2023-03-19T02:19:44.247Z,97825.03
2023-03-19T02:22:16.267Z,97826.84
2023-03-19T02:24:53.446Z,97832.78
2023-03-19T02:27:20.863Z,97843.72
2023-03-19T02:29:49.326Z,97840.09
2023-03-19T02:32:16.352Z,97840.72
2023-03-19T02:34:46.876Z,97850.00
2023-03-19T02:37:27.877Z,97844.56
2023-03-19T02:39:59.469Z,97851.47
2023-03-19T02:42:28.840Z,97842.88
2023-03-19T02:44:55.520Z,97849.16
2023-03-19T02:47:22.023Z,97834.31
2023-03-19T02:49:48.480Z,97835.47
2023-03-19T02:52:16.710Z,97846.69
2023-03-19T02:54:45.192Z,97843.91
2023-03-19T02:57:11.621Z,97850.81
2023-03-19T02:59:39.085Z,97836.59
2023-03-19T03:02:06.783Z,97844.84
2023-03-19T03:04:34.907Z,97855.63
2023-03-19T03:07:01.793Z,97855.78
2023-03-19T03:09:28.288Z,97849.97
2023-03-19T03:11:54.857Z,97845.03
2023-03-19T03:14:21.325Z,97854.97
2023-03-19T03:16:47.909Z,97856.59
2023-03-19T03:19:17.886Z,97836.44
2023-03-19T03:21:44.320Z,97844.22
2023-03-19T03:24:11.055Z,97845.19
2023-03-19T03:26:38.985Z,97851.31
2023-03-19T03:29:06.663Z,97849.97
2023-03-19T03:31:33.576Z,97846.69
2023-03-19T03:34:00.641Z,97843.22
2023-03-19T03:36:27.852Z,97846.03
2023-03-19T03:38:54.786Z,97851.00
2023-03-19T03:41:21.663Z,97848.34
2023-03-19T03:43:51.471Z,97839.44
2023-03-19T03:46:21.075Z,97836.44
2023-03-19T03:48:51.481Z,97846.50
2023-03-19T03:51:22.142Z,97841.41
2023-03-19T03:53:49.252Z,97842.72
2023-03-19T03:56:15.736Z,97855.78
2023-03-19T03:58:42.298Z,97852.63
2023-03-19T04:01:15.326Z,97852.94
2023-03-19T04:03:41.910Z,97847.50
2023-03-19T04:06:13.969Z,97862.25
2023-03-19T04:08:40.371Z,97858.25
2023-03-19T04:11:08.299Z,97864.53
2023-03-19T04:13:37.146Z,97866.19
2023-03-19T04:16:08.257Z,97859.06
2023-03-19T04:18:34.905Z,97857.59
2023-03-19T04:21:01.953Z,97860.41
2023-03-19T04:23:28.805Z,97868.50
2023-03-19T04:26:00.386Z,97876.63
2023-03-19T04:28:27.372Z,97872.81
2023-03-19T04:31:02.743Z,97875.13
2023-03-19T04:33:29.920Z,97881.72
2023-03-19T04:35:56.688Z,97879.25
2023-03-19T04:38:23.376Z,97876.44
2023-03-19T04:40:54.223Z,97874.16
2023-03-19T04:43:24.534Z,97866.69
2023-03-19T04:45:54.596Z,97877.28
2023-03-19T04:48:24.286Z,97892.31
2023-03-19T04:50:57.041Z,97875.78
2023-03-19T04:53:24.701Z,97886.88
2023-03-19T04:55:54.594Z,97892.50
2023-03-19T04:58:22.849Z,97888.53
2023-03-19T05:00:49.301Z,97892.31
2023-03-19T05:03:16.538Z,97890.00
2023-03-19T05:05:43.207Z,97890.50
2023-03-19T05:08:09.738Z,97899.44
2023-03-19T05:10:37.543Z,97907.22
2023-03-19T05:13:04.617Z,97904.06
2023-03-19T05:15:31.486Z,97893.81
2023-03-19T05:17:58.388Z,97901.41
2023-03-19T05:20:25.320Z,97905.38
2023-03-19T05:22:54.732Z,97899.78
2023-03-19T05:25:23.606Z,97903.41
2023-03-19T05:27:50.089Z,97912.31
2023-03-19T05:30:18.422Z,97909.50
2023-03-19T05:32:46.935Z,97917.63
2023-03-19T05:35:14.369Z,97912.00
2023-03-19T05:37:41.578Z,97907.38
2023-03-19T05:40:08.858Z,97912.81
2023-03-19T05:42:35.461Z,97916.25
2023-03-19T05:45:02.276Z,97917.72
2023-03-19T05:47:28.728Z,97927.13
2023-03-19T05:49:56.416Z,97927.72
2023-03-19T05:52:26.443Z,97931.22
2023-03-19T05:54:54.050Z,97936.16
2023-03-19T05:57:21.247Z,97937.78
2023-03-19T05:59:47.775Z,97931.16
2023-03-19T06:02:14.641Z,97952.13
2023-03-19T06:04:41.180Z,97937.78
2023-03-19T06:07:07.813Z,97939.78
2023-03-19T06:09:34.274Z,97950.06
2023-03-19T06:12:00.862Z,97942.63
2023-03-19T06:14:27.275Z,97946.22
2023-03-19T06:16:56.838Z,97949.25
2023-03-19T06:19:26.065Z,97944.00
2023-03-19T06:21:54.117Z,97957.72
2023-03-19T06:24:20.672Z,97956.00
2023-03-19T06:26:47.172Z,97962.16
2023-03-19T06:29:13.670Z,97964.97
2023-03-19T06:31:41.652Z,97966.16
2023-03-19T06:34:08.471Z,97963.19
2023-03-19T06:36:34.963Z,97973.31
2023-03-19T06:39:01.637Z,97978.75
2023-03-19T06:41:28.072Z,97976.97
2023-03-19T06:43:57.581Z,97981.09
2023-03-19T06:46:26.588Z,97978.34
2023-03-19T06:48:55.177Z,97992.53
2023-03-19T06:51:21.945Z,97980.66
2023-03-19T06:53:48.444Z,97989.75
2023-03-19T06:56:15.697Z,97980.97
2023-03-19T06:58:42.162Z,97993.41
2023-03-19T07:01:09.153Z,97983.28
2023-03-19T07:03:35.644Z,98003.09
2023-03-19T07:06:02.127Z,97997.22
2023-03-19T07:08:29.898Z,97996.38
2023-03-19T07:10:57.683Z,98005.22
2023-03-19T07:13:27.447Z,97998.13
2023-03-19T07:15:57.069Z,98003.44
2023-03-19T07:18:27.168Z,97992.47
2023-03-19T07:20:56.787Z,97995.97
2023-03-19T07:23:23.483Z,98001.13
2023-03-19T07:25:49.993Z,98010.00
2023-03-19T07:28:16.506Z,97996.75
2023-03-19T07:30:42.992Z,97998.44
2023-03-19T07:33:09.443Z,97990.69
2023-03-19T07:35:36.622Z,97994.16
2023-03-19T07:38:03.304Z,97990.88
2023-03-19T07:40:29.930Z,97989.78
2023-03-19T07:42:56.428Z,97990.59
2023-03-19T07:45:25.491Z,97997.28
2023-03-19T07:47:52.595Z,98001.88
2023-03-19T07:50:19.429Z,98001.69
2023-03-19T07:52:48.011Z,98010.78
2023-03-19T07:55:15.641Z,98011.63
2023-03-19T07:57:42.199Z,98004.22
2023-03-19T08:00:10.598Z,98009.09
2023-03-19T08:02:37.153Z,98006.81
2023-03-19T08:05:04.824Z,98003.78
2023-03-19T08:07:32.151Z,98013.41
2023-03-19T08:09:58.752Z,98014.06
2023-03-19T08:12:26.128Z,98010.47
2023-03-19T08:14:53.998Z,98012.59
2023-03-19T08:17:21.384Z,98026.63
2023-03-19T08:19:47.906Z,98025.78
2023-03-19T08:22:14.418Z,98031.84
2023-03-19T08:24:40.906Z,98035.47
2023-03-19T08:27:08.120Z,98034.59
2023-03-19T08:29:35.181Z,98031.28
2023-03-19T08:32:01.796Z,98031.84
2023-03-19T08:34:28.240Z,98040.47
2023-03-19T08:36:57.818Z,98035.78
2023-03-19T08:39:27.327Z,98032.41
2023-03-19T08:41:53.898Z,98039.25
2023-03-19T08:44:20.357Z,98044.22
2023-03-19T08:46:46.843Z,98038.78
2023-03-19T08:49:13.277Z,98042.16
2023-03-19T08:51:40.506Z,98036.03
2023-03-19T08:54:07.061Z,98040.06
2023-03-19T08:56:33.584Z,98053.13
2023-03-19T08:59:00.232Z,98051.91
2023-03-19T09:01:27.109Z,98050.50
2023-03-19T09:03:55.713Z,98057.44
2023-03-19T09:06:22.210Z,98052.41
2023-03-19T09:08:48.918Z,98062.44
2023-03-19T09:11:16.924Z,98062.00
2023-03-19T09:13:43.934Z,98066.06
2023-03-19T09:16:10.524Z,98062.59
2023-03-19T09:18:37.060Z,98049.94
2023-03-19T09:21:03.892Z,98058.47
2023-03-19T09:23:30.408Z,98043.97
2023-03-19T09:25:56.950Z,98050.66
2023-03-19T09:28:27.180Z,98051.16
2023-03-19T09:30:54.876Z,98058.44
2023-03-19T09:33:21.723Z,98051.75
2023-03-19T09:35:54.016Z,98055.50
2023-03-19T09:38:22.593Z,98050.16
2023-03-19T09:41:01.864Z,98056.09
2023-03-19T09:43:28.279Z,98055.09
2023-03-19T09:46:02.219Z,98054.16
2023-03-19T09:48:47.033Z,98054.09
2023-03-19T09:51:21.901Z,98054.94
2023-03-19T09:53:58.294Z,98067.88
2023-03-19T09:56:27.981Z,98059.75
2023-03-19T09:58:57.796Z,98046.59
2023-03-19T10:01:41.461Z,98056.97
2023-03-19T10:04:42.552Z,98067.47
2023-03-19T10:07:25.925Z,98067.47
2023-03-19T10:10:05.069Z,98061.22
2023-03-19T10:12:54.761Z,98064.84
2023-03-19T10:15:35.564Z,98066.28
2023-03-19T10:18:11.337Z,98064.84
2023-03-19T10:20:58.053Z,98066.66
2023-03-19T10:23:39.934Z,98064.59
2023-03-19T10:26:12.202Z,98065.50
2023-03-19T10:28:42.451Z,98061.66
2023-03-19T10:31:37.846Z,98069.97
2023-03-19T10:34:32.021Z,98071.03
2023-03-19T10:37:14.338Z,98063.97
2023-03-19T10:39:43.667Z,98066.28
2023-03-19T10:42:20.004Z,98069.47
2023-03-19T10:45:12.754Z,98061.16
2023-03-19T10:47:41.182Z,98058.88
2023-03-19T10:50:25.297Z,98067.03
2023-03-19T10:53:00.698Z,98047.72
2023-03-19T10:55:30.956Z,98059.34
2023-03-19T10:58:04.547Z,98044.31
2023-03-19T11:00:33.562Z,98051.41
2023-03-19T11:03:04.048Z,98050.38
2023-03-19T11:05:34.015Z,98037.22
2023-03-19T11:08:34.581Z,98044.69
2023-03-19T11:11:01.764Z,98026.84
2023-03-19T11:13:28.398Z,98025.59
2023-03-19T11:15:59.214Z,98023.72
2023-03-19T11:18:36.980Z,97999.84
2023-03-19T11:21:20.634Z,98016.34
2023-03-19T11:23:55.455Z,98023.91
2023-03-19T11:26:26.232Z,98007.13
2023-03-19T11:28:52.854Z,98035.06
2023-03-19T11:31:45.016Z,98022.72
2023-03-19T11:34:35.953Z,98027.34
2023-03-19T11:37:29.728Z,98031.41
2023-03-19T11:40:08.533Z,98017.28
2023-03-19T11:42:57.119Z,98011.09
2023-03-19T11:45:33.850Z,98006.00
2023-03-19T11:48:34.649Z,97998.00
2023-03-19T11:51:13.357Z,98008.47
2023-03-19T11:54:01.451Z,98008.72
2023-03-19T11:56:49.215Z,98004.47
2023-03-19T11:59:58.484Z,98013.09
2023-03-19T12:02:45.355Z,98019.69
2023-03-19T12:05:27.937Z,98025.66
2023-03-19T12:08:38.051Z,98039.88
2023-03-19T12:11:14.366Z,98046.09
2023-03-19T12:13:59.070Z,98042.44
2023-03-19T12:16:53.062Z,98030.84
2023-03-19T12:19:32.016Z,98024.28
2023-03-19T12:22:17.345Z,98015.03
2023-03-19T12:25:06.090Z,98002.31
2023-03-19T12:27:36.669Z,97984.50
2023-03-19T12:30:30.143Z,97986.88
2023-03-19T12:33:08.921Z,97981.75
2023-03-19T12:35:38.519Z,97975.88
2023-03-19T12:38:28.755Z,97987.41
2023-03-19T12:41:03.766Z,98000.88
2023-03-19T12:43:39.432Z,98004.84
2023-03-19T12:46:25.787Z,98001.22
2023-03-19T12:49:07.967Z,97995.56
2023-03-19T12:51:42.353Z,97977.53
2023-03-19T12:54:18.200Z,97970.31
2023-03-19T12:57:06.258Z,97976.63
2023-03-19T12:59:54.723Z,98006.66
2023-03-19T13:03:03.333Z,98024.06
2023-03-19T13:05:41.733Z,98060.97
2023-03-19T13:08:27.613Z,98044.34
2023-03-19T13:10:57.201Z,98036.38
2023-03-19T13:13:51.356Z,98040.41
2023-03-19T13:16:30.946Z,98029.28
2023-03-19T13:19:06.691Z,98020.47
2023-03-19T13:21:37.698Z,98022.00
2023-03-19T13:24:19.425Z,98014.50
2023-03-19T13:26:47.559Z,98015.25
2023-03-19T13:29:31.658Z,98003.50
2023-03-19T13:32:26.580Z,97999.81
2023-03-19T13:35:28.092Z,98007.66
2023-03-19T13:38:19.858Z,98009.84
2023-03-19T13:40:48.215Z,98005.91
2023-03-19T13:43:28.152Z,97996.09
2023-03-19T13:46:15.948Z,97999.25
2023-03-19T13:48:45.524Z,98007.94
2023-03-19T13:51:18.021Z,97995.09
2023-03-19T13:54:08.248Z,97982.78
2023-03-19T13:57:03.336Z,97987.84
2023-03-19T13:59:33.555Z,97974.25
2023-03-19T14:02:01.906Z,97995.84
2023-03-19T14:04:31.175Z,98004.06
2023-03-19T14:07:18.158Z,97997.13
2023-03-19T14:10:04.679Z,97983.78
2023-03-19T14:12:42.954Z,97981.69
2023-03-19T14:15:09.854Z,97992.66
2023-03-19T14:17:44.993Z,97979.75
2023-03-19T14:20:12.653Z,97985.31
2023-03-19T14:23:08.941Z,97978.75
2023-03-19T14:26:07.000Z,97978.19
2023-03-19T14:28:45.393Z,97989.72
2023-03-19T14:31:43.241Z,97992.81
2023-03-19T14:34:38.891Z,97990.09
2023-03-19T14:37:44.292Z,97988.06
2023-03-19T14:40:16.144Z,97964.16
2023-03-19T14:43:15.393Z,97979.66
2023-03-19T14:45:59.637Z,97973.56
2023-03-19T14:48:40.667Z,97953.41
2023-03-19T14:51:44.766Z,97964.53
2023-03-19T14:54:58.589Z,97970.88
2023-03-19T14:57:33.028Z,97966.16
2023-03-19T15:00:00.280Z,97942.47
2023-03-19T15:02:41.161Z,97961.53
2023-03-19T15:05:17.527Z,97957.78
2023-03-19T15:07:47.602Z,97953.38
2023-03-19T15:10:20.296Z,97963.81
2023-03-19T15:13:05.373Z,97963.88
2023-03-19T15:16:02.455Z,97974.19
2023-03-19T15:18:31.896Z,97974.28
2023-03-19T15:21:02.537Z,97972.00
2023-03-19T15:23:32.920Z,97975.09
2023-03-19T15:26:03.148Z,97965.22
2023-03-19T15:28:34.508Z,97984.47
2023-03-19T15:31:26.770Z,97990.31
2023-03-19T15:33:53.478Z,97986.63
2023-03-19T15:36:31.318Z,98002.69
2023-03-19T15:39:04.068Z,97996.84
2023-03-19T15:41:33.118Z,97986.25
2023-03-19T15:44:01.493Z,97986.44
2023-03-19T15:46:34.553Z,97988.84
2023-03-19T15:49:20.859Z,97998.34
2023-03-19T15:51:53.288Z,98004.28
2023-03-19T15:54:20.960Z,98007.63
2023-03-19T15:56:50.423Z,98010.59
2023-03-19T15:59:20.595Z,98008.13
2023-03-19T16:01:47.447Z,98008.31
2023-03-19T16:04:22.072Z,98026.03
2023-03-19T16:06:49.973Z,98016.84
2023-03-19T16:09:23.059Z,98037.69
2023-03-19T16:11:49.653Z,98029.50
2023-03-19T16:14:42.321Z,98041.38
2023-03-19T16:17:14.455Z,98040.00
2023-03-19T16:19:50.000Z,98050.44
2023-03-19T16:22:20.465Z,98049.34
2023-03-19T16:24:48.909Z,98049.88
2023-03-19T16:27:19.350Z,98065.91
2023-03-19T16:29:56.737Z,98063.06
2023-03-19T16:32:32.110Z,98071.03
2023-03-19T16:35:25.400Z,98080.09
2023-03-19T16:37:53.909Z,98083.50
2023-03-19T16:40:20.765Z,98084.41
2023-03-19T16:42:49.507Z,98090.91
2023-03-19T16:45:18.916Z,98089.78
2023-03-19T16:47:51.075Z,98089.41
2023-03-19T16:50:19.915Z,98113.94
2023-03-19T16:52:47.654Z,98114.28
2023-03-19T16:55:27.292Z,98115.22
2023-03-19T16:58:07.529Z,98116.84
2023-03-19T17:00:34.413Z,98121.97
2023-03-19T17:03:03.628Z,98133.47
2023-03-19T17:05:31.863Z,98125.22
2023-03-19T17:07:58.754Z,98138.09
2023-03-19T17:10:28.430Z,98143.66
2023-03-19T17:12:56.317Z,98144.25
2023-03-19T17:16:13.322Z,98153.31
2023-03-19T17:18:42.925Z,98153.31
2023-03-19T17:21:12.768Z,98162.94
2023-03-19T17:23:39.429Z,98162.97
2023-03-19T17:26:15.381Z,98157.53
2023-03-19T17:28:41.879Z,98153.06
2023-03-19T17:31:24.138Z,98170.47
2023-03-19T17:33:52.354Z,98171.50
2023-03-19T17:36:19.616Z,98186.22
2023-03-19T17:38:55.328Z,98188.63
2023-03-19T17:41:22.002Z,98196.09
2023-03-19T17:43:48.630Z,98187.81
2023-03-19T17:46:21.587Z,98202.47
2023-03-19T17:48:49.850Z,98190.53
2023-03-19T17:51:19.354Z,98204.78
2023-03-19T17:53:49.104Z,98210.94
2023-03-19T17:56:18.377Z,98201.00
2023-03-19T17:58:45.096Z,98203.50
2023-03-19T18:01:15.376Z,98213.13
2023-03-19T18:03:42.049Z,98211.31
2023-03-19T18:06:23.557Z,98228.06
2023-03-19T18:08:50.838Z,98238.84
2023-03-19T18:11:17.659Z,98233.38
2023-03-19T18:13:44.166Z,98219.63
2023-03-19T18:16:23.349Z,98202.88
2023-03-19T18:18:51.468Z,98229.22
2023-03-19T18:21:18.634Z,98228.41
2023-03-19T18:23:45.514Z,98233.88
2023-03-19T18:26:12.034Z,98230.56
2023-03-19T18:28:39.033Z,98233.22
2023-03-19T18:31:21.789Z,98228.75
2023-03-19T18:33:53.831Z,98231.06
2023-03-19T18:36:27.785Z,98214.44
2023-03-19T18:38:55.429Z,98247.63
2023-03-19T18:41:23.554Z,98244.97
2023-03-19T18:43:50.538Z,98246.13
2023-03-19T18:46:22.020Z,98265.84
2023-03-19T18:48:48.999Z,98274.94
2023-03-19T18:51:15.489Z,98275.75
2023-03-19T18:53:41.954Z,98273.75
2023-03-19T18:56:31.770Z,98300.78
2023-03-19T18:58:59.210Z,98300.91
2023-03-19T19:01:27.713Z,98284.66
2023-03-19T19:03:54.765Z,98296.44
2023-03-19T19:06:44.250Z,98297.78
2023-03-19T19:09:14.105Z,98302.44
2023-03-19T19:11:43.896Z,98301.78
2023-03-19T19:14:18.397Z,98297.78
2023-03-19T19:16:45.370Z,98295.97
2023-03-19T19:19:22.612Z,98300.09
2023-03-19T19:21:52.077Z,98305.56
2023-03-19T19:24:19.092Z,98311.88
2023-03-19T19:26:48.200Z,98309.72
2023-03-19T19:29:26.524Z,98315.22
2023-03-19T19:31:54.718Z,98310.75
2023-03-19T19:34:22.764Z,98302.94
2023-03-19T19:36:51.075Z,98298.91
2023-03-19T19:39:18.429Z,98320.47
2023-03-19T19:41:45.214Z,98320.34
2023-03-19T19:44:20.182Z,98318.00
2023-03-19T19:46:57.679Z,98278.84
2023-03-19T19:49:25.407Z,98270.22
2023-03-19T19:51:52.209Z,98320.00
2023-03-19T19:54:18.691Z,98333.44
2023-03-19T19:56:45.407Z,98330.44
2023-03-19T19:59:14.906Z,98335.72
2023-03-19T20:01:41.457Z,98337.75
2023-03-19T20:04:13.842Z,98336.13
2023-03-19T20:06:40.390Z,98338.75
2023-03-19T20:09:07.788Z,98349.38
2023-03-19T20:11:37.510Z,98343.88
2023-03-19T20:14:05.013Z,98367.59
2023-03-19T20:16:31.586Z,98393.06
2023-03-19T20:18:58.157Z,98383.34
2023-03-19T20:21:24.672Z,98375.94
2023-03-19T20:23:55.214Z,98392.03
2023-03-19T20:26:24.706Z,98396.56
2023-03-19T20:28:51.719Z,98400.44
2023-03-19T20:31:26.012Z,98411.81
2023-03-19T20:33:52.546Z,98419.69
2023-03-19T20:36:19.613Z,98411.81
2023-03-19T20:38:46.130Z,98416.19
2023-03-19T20:41:29.227Z,98436.59
2023-03-19T20:43:56.529Z,98436.06
2023-03-19T20:46:24.594Z,98433.88
2023-03-19T20:48:51.230Z,98428.81
2023-03-19T20:51:24.809Z,98437.53
2023-03-19T20:53:52.705Z,98442.09
2023-03-19T20:56:22.219Z,98432.72
2023-03-19T20:58:48.848Z,98442.00
2023-03-19T21:01:16.829Z,98444.78
2023-03-19T21:03:43.366Z,98442.91
2023-03-19T21:06:20.228Z,98444.59
2023-03-19T21:08:48.844Z,98438.91
2023-03-19T21:11:18.342Z,98443.31
2023-03-19T21:13:46.314Z,98440.66
2023-03-19T21:16:18.386Z,98434.69
2023-03-19T21:18:46.447Z,98429.25
2023-03-19T21:21:16.315Z,98427.28
2023-03-19T21:23:52.929Z,98434.03
2023-03-19T21:26:22.451Z,98434.13
2023-03-19T21:28:52.079Z,98426.19
2023-03-19T21:31:23.590Z,98438.19
2023-03-19T21:33:51.565Z,98429.25
2023-03-19T21:36:18.751Z,98437.72
2023-03-19T21:38:45.627Z,98432.44
2023-03-19T21:41:21.812Z,98426.22
2023-03-19T21:43:52.689Z,98437.19
2023-03-19T21:46:24.552Z,98432.88
2023-03-19T21:48:52.351Z,98428.56
2023-03-19T21:51:18.822Z,98424.72
2023-03-19T21:53:45.732Z,98403.78
2023-03-19T21:56:33.575Z,98428.94
2023-03-19T21:59:03.502Z,98435.34
2023-03-19T22:01:30.033Z,98436.16
2023-03-19T22:03:57.916Z,98440.84
2023-03-19T22:06:25.768Z,98446.72
2023-03-19T22:08:53.972Z,98433.09
2023-03-19T22:11:42.519Z,98441.13
2023-03-19T22:14:24.629Z,98446.75
2023-03-19T22:16:53.850Z,98445.47
2023-03-19T22:19:21.144Z,98449.00
2023-03-19T22:21:48.100Z,98449.72
2023-03-19T22:24:14.579Z,98456.53
2023-03-19T22:26:46.756Z,98443.75
2023-03-19T22:29:20.008Z,98453.91
2023-03-19T22:31:51.178Z,98445.72
2023-03-19T22:34:20.080Z,98451.78
2023-03-19T22:36:46.551Z,98430.81
2023-03-19T22:39:13.785Z,98425.03
2023-03-19T22:41:45.793Z,98446.13
2023-03-19T22:44:30.280Z,98438.78
2023-03-19T22:46:58.760Z,98449.94
2023-03-19T22:49:26.475Z,98451.00
2023-03-19T22:51:53.052Z,98444.16
2023-03-19T22:54:19.604Z,98448.91
2023-03-19T22:56:46.139Z,98453.44
2023-03-19T22:59:12.572Z,98435.13
2023-03-19T23:01:46.874Z,98462.06
2023-03-19T23:04:21.775Z,98469.13
2023-03-19T23:06:49.315Z,98468.88
2023-03-19T23:09:40.272Z,98468.09
2023-03-19T23:14:33.989Z,98463.53
2023-03-19T23:17:06.723Z,98475.34
2023-03-19T23:19:35.486Z,98481.19
2023-03-19T23:22:04.930Z,98488.72
2023-03-19T23:24:31.554Z,98491.78
2023-03-19T23:26:59.751Z,98488.06
2023-03-19T23:29:35.981Z,98482.63
2023-03-19T23:32:04.387Z,98470.25
2023-03-19T23:34:33.500Z,98487.22
2023-03-19T23:37:02.519Z,98464.31
2023-03-19T23:39:29.292Z,98470.22
2023-03-19T23:41:58.242Z,98463.69
2023-03-19T23:44:27.173Z,98462.84
2023-03-19T23:46:53.768Z,98447.84
2023-03-19T23:49:28.814Z,98469.09
2023-03-19T23:51:56.164Z,98478.78
2023-03-19T23:54:30.524Z,98477.16
2023-03-19T23:56:59.868Z,98470.06
2023-03-19T23:59:32.354Z,98477.53
